Time;durP1;ratioP1;P1;durP2;ratioP2;P2;SDS_P1;SDS_P2;PMS_P1;PMS_P2;Temp;Humidity;BMP_temperature;BMP_pressure;BME280_temperature;BME280_humidity;BME280_pressure;Samples;Min_cycle;Max_cycle;Signal;HPM_P1;HPM_P2
2022/01/04 00:01:49;;;;;;;;;;;;;;;4.54;58.95;94294.09;5007468;28;20009;-68
2022/01/04 00:04:14;;;;;;;;;;;;;;;4.73;59.54;94284.13;5006568;28;20409;-68
2022/01/04 00:06:40;;;;;;;;;;;;;;;4.67;59.97;94283.84;5005503;28;20012;-68
2022/01/04 00:09:07;;;;;;;;;;;;;;;4.83;58.50;94274.19;5006148;28;20017;-68
2022/01/04 00:11:46;;;;;;;;;;;;;;;4.67;58.15;94264.53;5006455;28;19981;-68
2022/01/04 00:14:11;;;;;;;;;;;;;;;4.87;59.47;94257.00;5006712;28;19973;-68
2022/01/04 00:16:37;;;;;;;;;;;;;;;4.68;59.87;94247.72;4990886;28;20596;-68
2022/01/04 00:19:02;;;;;;;;;;;;;;;4.73;62.54;94242.75;5006170;28;20043;-68
2022/01/04 00:21:27;;;;;;;;;;;;;;;4.88;58.34;94234.06;5006482;28;19992;-69
2022/01/04 00:23:53;;;;;;;;;;;;;;;5.06;60.72;94229.34;5005907;28;19990;-68
2022/01/04 00:26:18;;;;;;;;;;;;;;;5.00;61.46;94214.19;5005805;28;20410;-68
2022/01/04 00:28:43;;;;;;;;;;;;;;;5.04;58.45;94201.47;5005790;28;21403;-68
2022/01/04 00:31:08;;;;;;;;;;;;;;;5.04;62.14;94204.94;5006048;28;20413;-69
2022/01/04 00:33:34;;;;;;;;;;;;;;;5.38;60.15;94205.50;5006621;28;19970;-68
2022/01/04 00:35:59;;;;;;;;;;;;;;;5.59;60.49;94198.69;5005718;28;19997;-68
2022/01/04 00:38:24;;;;;;;;;;;;;;;5.65;60.24;94192.69;5005893;28;20068;-69
2022/01/04 00:40:49;;;;;;;;;;;;;;;5.73;58.82;94187.31;5005270;28;20500;-68
2022/01/04 00:43:14;;;;;;;;;;;;;;;5.83;58.28;94188.84;5005775;28;20040;-68
2022/01/04 00:45:40;;;;;;;;;;;;;;;5.89;59.75;94184.66;5006157;28;19969;-69
2022/01/04 00:50:31;;;;;;;;;;;;;;;5.97;59.45;94160.78;5006004;28;20057;-68
2022/01/04 00:52:56;;;;;;;;;;;;;;;6.05;58.85;94159.84;5005647;28;19986;-69
2022/01/04 00:55:21;;;;;;;;;;;;;;;6.03;56.53;94141.53;5005757;28;20060;-69
2022/01/04 00:57:47;;;;;;;;;;;;;;;6.07;58.96;94139.34;5006748;28;20538;-69
2022/01/04 01:00:12;;;;;;;;;;;;;;;6.12;58.78;94132.50;4994472;28;20026;-69
2022/01/04 01:02:38;;;;;;;;;;;;;;;6.23;58.53;94127.72;4987100;28;19974;-67
2022/01/04 01:05:03;;;;;;;;;;;;;;;6.32;58.37;94126.59;4986980;28;19967;-69
2022/01/04 01:07:29;;;;;;;;;;;;;;;6.37;58.05;94120.75;4985396;28;19990;-68
2022/01/04 01:12:25;;;;;;;;;;;;;;;6.42;58.33;94114.91;5009326;28;19989;-68
2022/01/04 01:14:50;;;;;;;;;;;;;;;6.44;57.75;94116.34;5006979;28;19970;-69
2022/01/04 01:17:15;;;;;;;;;;;;;;;6.48;57.59;94103.56;5007298;28;19977;-69
2022/01/04 01:19:41;;;;;;;;;;;;;;;6.46;57.00;94090.53;5022157;28;20582;-69
2022/01/04 01:22:06;;;;;;;;;;;;;;;6.43;57.52;94090.91;5007337;28;20004;-69
2022/01/04 01:24:31;;;;;;;;;;;;;;;6.45;56.49;94090.72;5006738;28;19994;-69
2022/01/04 01:26:56;;;;;;;;;;;;;;;6.29;54.01;94097.09;5006603;28;20016;-69
2022/01/04 01:29:22;;;;;;;;;;;;;;;6.11;57.87;94085.94;5005915;28;20490;-69
2022/01/04 01:31:47;;;;;;;;;;;;;;;6.11;54.32;94079.81;5006974;28;20005;-69
2022/01/04 01:34:12;;;;;;;;;;;;;;;6.10;57.48;94083.47;5006725;28;20072;-69
2022/01/04 01:36:37;;;;;;;;;;;;;;;5.72;56.94;94074.72;5006618;28;19998;-69
2022/01/04 01:39:03;;;;;;;;;;;;;;;5.86;58.40;94065.13;5005846;28;19973;-68
2022/01/04 01:41:29;;;;;;;;;;;;;;;6.04;58.80;94060.44;5007039;28;19994;-69
2022/01/04 01:43:54;;;;;;;;;;;;;;;6.18;57.99;94062.22;5006645;28;20074;-69
2022/01/04 01:46:19;;;;;;;;;;;;;;;6.14;56.92;94053.03;5006885;28;20033;-69
2022/01/04 01:48:44;;;;;;;;;;;;;;;6.04;58.60;94045.41;5006027;28;20001;-69
2022/01/04 01:51:10;;;;;;;;;;;;;;;6.13;58.75;94040.84;5007034;28;19992;-69
2022/01/04 01:53:35;;;;;;;;;;;;;;;6.24;58.02;94040.34;5007133;28;19969;-69
2022/01/04 01:56:01;;;;;;;;;;;;;;;6.29;58.07;94028.38;5006368;28;20103;-69
2022/01/04 01:58:26;;;;;;;;;;;;;;;6.35;58.38;94028.41;5006527;28;19989;-69
2022/01/04 02:00:51;;;;;;;;;;;;;;;6.41;57.98;94029.50;5005841;28;19993;-69
2022/01/04 02:03:16;;;;;;;;;;;;;;;6.46;58.00;94034.22;5006290;28;20024;-69
2022/01/04 02:05:41;;;;;;;;;;;;;;;6.54;57.99;94025.34;5006543;28;20029;-69
2022/01/04 02:08:07;;;;;;;;;;;;;;;6.57;57.35;94017.03;5005298;28;19986;-69
2022/01/04 02:10:32;;;;;;;;;;;;;;;6.42;56.47;94020.53;4988072;28;20028;-69
2022/01/04 02:12:58;;;;;;;;;;;;;;;6.39;57.55;94015.63;5005001;28;20035;-69
2022/01/04 02:15:24;;;;;;;;;;;;;;;6.37;57.19;94007.88;5005054;28;20004;-68
2022/01/04 02:17:49;;;;;;;;;;;;;;;6.35;57.17;94009.09;5008077;28;20446;-64
2022/01/04 02:20:14;;;;;;;;;;;;;;;6.39;57.84;94010.34;5004868;28;20033;-67
2022/01/04 02:22:39;;;;;;;;;;;;;;;6.02;57.10;94007.78;5005183;28;20055;-67
2022/01/04 02:25:05;;;;;;;;;;;;;;;6.07;57.96;93996.66;5005178;28;19974;-67
2022/01/04 02:27:34;;;;;;;;;;;;;;;6.22;57.93;93994.75;5005109;28;20405;-67
2022/01/04 02:29:59;;;;;;;;;;;;;;;6.27;58.16;93980.97;5005671;28;20080;-67
2022/01/04 02:32:24;;;;;;;;;;;;;;;6.37;57.96;93980.66;5004944;28;20525;-67
2022/01/04 02:34:50;;;;;;;;;;;;;;;6.48;57.25;93984.59;5004453;28;20068;-67
2022/01/04 02:37:22;;;;;;;;;;;;;;;6.37;52.48;93983.28;5004019;28;19977;-68
2022/01/04 02:39:48;;;;;;;;;;;;;;;6.28;55.25;93984.44;5003985;28;20108;-68
2022/01/04 02:42:13;;;;;;;;;;;;;;;6.45;53.40;93979.69;5004946;28;20057;-68
2022/01/04 02:44:38;;;;;;;;;;;;;;;6.41;56.82;93979.25;5004065;28;20040;-68
2022/01/04 02:47:04;;;;;;;;;;;;;;;5.62;56.43;93973.91;5004101;28;20374;-68
2022/01/04 02:49:29;;;;;;;;;;;;;;;5.64;53.94;93963.16;5004603;28;19986;-68
2022/01/04 02:51:54;;;;;;;;;;;;;;;5.37;58.14;93961.03;5007734;28;20065;-68
2022/01/04 02:54:20;;;;;;;;;;;;;;;5.48;57.05;93955.25;5007964;28;19977;-67
2022/01/04 02:56:45;;;;;;;;;;;;;;;5.68;59.53;93957.28;5007670;28;20389;-68
2022/01/04 02:59:10;;;;;;;;;;;;;;;5.93;56.60;93949.00;5007100;28;20008;-68
2022/01/04 03:01:35;;;;;;;;;;;;;;;6.02;57.90;93938.31;5008046;28;19974;-68
2022/01/04 03:04:01;;;;;;;;;;;;;;;6.14;58.38;93931.47;5007542;28;20167;-68
2022/01/04 03:06:26;;;;;;;;;;;;;;;6.23;56.23;93937.44;5007759;28;20005;-68
2022/01/04 03:08:51;;;;;;;;;;;;;;;6.28;57.25;93928.91;5007872;28;19992;-68
2022/01/04 03:11:16;;;;;;;;;;;;;;;6.18;52.87;93932.72;5007223;28;19989;-67
2022/01/04 03:13:42;;;;;;;;;;;;;;;6.16;57.79;93926.84;5007983;28;20498;-68
2022/01/04 03:16:07;;;;;;;;;;;;;;;6.30;57.65;93924.28;5007488;28;19989;-68
2022/01/04 03:18:32;;;;;;;;;;;;;;;6.54;57.17;93930.97;5007540;28;19980;-68
2022/01/04 03:20:58;;;;;;;;;;;;;;;6.52;54.11;93934.84;4989616;28;20036;-68
2022/01/04 03:23:23;;;;;;;;;;;;;;;6.42;53.36;93925.38;5007508;28;19985;-68
2022/01/04 03:25:48;;;;;;;;;;;;;;;6.41;54.25;93930.84;5007515;28;19977;-69
2022/01/04 03:28:16;;;;;;;;;;;;;;;6.19;54.40;93936.19;5007488;28;20505;-68
2022/01/04 03:30:41;;;;;;;;;;;;;;;6.22;56.79;93914.66;5008397;28;19970;-68
2022/01/04 03:33:06;;;;;;;;;;;;;;;6.20;55.38;93917.50;5008937;28;20385;-69
2022/01/04 03:35:32;;;;;;;;;;;;;;;6.21;55.59;93905.94;5006713;28;20006;-68
2022/01/04 03:37:57;;;;;;;;;;;;;;;6.28;55.26;93908.59;5008664;28;20000;-69
2022/01/04 03:40:22;;;;;;;;;;;;;;;6.12;57.28;93893.84;5008063;28;19992;-69
2022/01/04 03:42:47;;;;;;;;;;;;;;;6.21;55.11;93895.34;5007908;28;19982;-68
2022/01/04 03:45:13;;;;;;;;;;;;;;;6.11;55.33;93877.19;5008184;28;19970;-68
2022/01/04 03:47:38;;;;;;;;;;;;;;;6.19;56.55;93880.72;5007821;28;20580;-69
2022/01/04 03:50:03;;;;;;;;;;;;;;;6.22;57.36;93867.91;5008257;28;19978;-69
2022/01/04 03:52:29;;;;;;;;;;;;;;;6.23;57.44;93858.97;5007758;28;19989;-69
2022/01/04 03:54:54;;;;;;;;;;;;;;;6.33;57.02;93858.63;5008122;28;20065;-69
2022/01/04 03:57:19;;;;;;;;;;;;;;;6.22;52.94;93873.19;5007950;28;20455;-69
2022/01/04 03:59:44;;;;;;;;;;;;;;;5.99;54.75;93860.25;5007939;28;19998;-69
2022/01/04 04:02:10;;;;;;;;;;;;;;;6.04;55.64;93855.19;5007175;28;20390;-69
2022/01/04 04:04:35;;;;;;;;;;;;;;;5.79;53.67;93846.88;5007403;28;19993;-68
2022/01/04 04:07:00;;;;;;;;;;;;;;;5.71;53.46;93842.53;5007407;28;20199;-69
2022/01/04 04:09:25;;;;;;;;;;;;;;;5.66;55.59;93832.56;5007387;28;19988;-69
2022/01/04 04:11:51;;;;;;;;;;;;;;;5.94;57.43;93826.47;5007344;28;20312;-69
2022/01/04 04:14:16;;;;;;;;;;;;;;;5.92;57.34;93817.91;4990125;28;20350;-69
2022/01/04 04:16:41;;;;;;;;;;;;;;;6.08;55.60;93803.59;5007816;28;19997;-68
2022/01/04 04:19:07;;;;;;;;;;;;;;;6.04;57.09;93798.88;5006885;28;20397;-69
2022/01/04 04:21:32;;;;;;;;;;;;;;;5.86;53.88;93797.56;5007280;28;20068;-69
2022/01/04 04:23:57;;;;;;;;;;;;;;;5.53;53.49;93806.06;4988793;28;19997;-69
2022/01/04 04:26:22;;;;;;;;;;;;;;;5.86;51.72;93802.84;5007499;28;20312;-69
2022/01/04 04:28:48;;;;;;;;;;;;;;;5.33;53.56;93799.63;5007215;28;20037;-69
2022/01/04 04:31:13;;;;;;;;;;;;;;;5.14;53.22;93793.13;5006969;28;20006;-69
2022/01/04 04:33:38;;;;;;;;;;;;;;;4.88;54.06;93804.22;4989937;28;19973;-69
2022/01/04 04:36:04;;;;;;;;;;;;;;;4.90;55.17;93794.31;5006666;28;19990;-69
2022/01/04 04:38:29;;;;;;;;;;;;;;;4.98;54.53;93799.47;5006841;28;19978;-69
2022/01/04 04:40:54;;;;;;;;;;;;;;;4.76;54.67;93791.53;5006840;28;20438;-69
2022/01/04 04:43:20;;;;;;;;;;;;;;;4.91;55.78;93786.22;5022189;28;20067;-69
2022/01/04 04:45:45;;;;;;;;;;;;;;;4.87;55.76;93781.50;5006396;28;19984;-69
2022/01/04 04:48:10;;;;;;;;;;;;;;;4.68;55.46;93784.56;5006159;28;20029;-69
2022/01/04 04:50:35;;;;;;;;;;;;;;;4.37;56.33;93772.44;5006723;28;20001;-69
2022/01/04 04:53:01;;;;;;;;;;;;;;;4.81;57.49;93772.50;4988593;28;19985;-69
2022/01/04 04:55:26;;;;;;;;;;;;;;;4.29;58.10;93762.81;5006530;28;19994;-69
2022/01/04 04:57:51;;;;;;;;;;;;;;;4.27;56.38;93756.94;5006721;28;20371;-69
2022/01/04 05:00:16;;;;;;;;;;;;;;;4.36;58.53;93762.91;5006169;28;19996;-70
2022/01/04 05:02:42;;;;;;;;;;;;;;;4.18;56.30;93763.28;5006125;28;19981;-69
2022/01/04 05:05:07;;;;;;;;;;;;;;;4.54;54.55;93756.41;5006243;28;19997;-69
2022/01/04 05:07:33;;;;;;;;;;;;;;;4.29;55.99;93749.63;5011955;28;20055;-69
2022/01/04 05:09:58;;;;;;;;;;;;;;;4.19;57.31;93751.75;4987157;28;19997;-69
2022/01/04 05:12:23;;;;;;;;;;;;;;;4.04;55.95;93738.59;4993941;28;19990;-69
2022/01/04 05:14:49;;;;;;;;;;;;;;;4.34;54.78;93735.91;5006007;28;20084;-69
2022/01/04 05:17:14;;;;;;;;;;;;;;;4.41;58.02;93730.72;5006179;28;19982;-69
2022/01/04 05:19:39;;;;;;;;;;;;;;;4.62;55.81;93737.03;5006753;28;20506;-69
2022/01/04 05:22:04;;;;;;;;;;;;;;;4.92;56.04;93731.63;5006191;28;20332;-69
2022/01/04 05:24:30;;;;;;;;;;;;;;;4.95;54.89;93726.81;5006457;28;20140;-69
2022/01/04 05:26:55;;;;;;;;;;;;;;;4.99;55.66;93721.97;5005624;28;20055;-69
2022/01/04 05:29:20;;;;;;;;;;;;;;;5.09;56.95;93716.41;5006880;28;19970;-69
2022/01/04 05:31:45;;;;;;;;;;;;;;;5.07;53.74;93721.84;5005816;28;19997;-69
2022/01/04 05:34:11;;;;;;;;;;;;;;;4.96;54.79;93722.34;5006777;28;19970;-69
2022/01/04 05:36:36;;;;;;;;;;;;;;;5.02;53.27;93712.84;5005748;28;19998;-69
2022/01/04 05:39:01;;;;;;;;;;;;;;;5.16;53.66;93700.63;5005886;28;20048;-69
2022/01/04 05:41:26;;;;;;;;;;;;;;;5.38;55.57;93703.22;5006468;28;20424;-69
2022/01/04 05:43:52;;;;;;;;;;;;;;;5.28;53.81;93704.38;5005996;28;20043;-69
2022/01/04 05:46:17;;;;;;;;;;;;;;;4.97;51.17;93700.25;5005556;28;20085;-69
2022/01/04 05:48:42;;;;;;;;;;;;;;;4.95;53.05;93694.34;5006069;28;19993;-69
2022/01/04 05:51:07;;;;;;;;;;;;;;;5.09;51.54;93697.94;5005873;28;20039;-69
2022/01/04 05:53:33;;;;;;;;;;;;;;;5.10;53.54;93691.63;5006119;28;20080;-72
2022/01/04 05:55:59;;;;;;;;;;;;;;;5.26;53.42;93681.81;5009857;28;19996;-71
2022/01/04 05:58:24;;;;;;;;;;;;;;;5.21;57.15;93690.31;5005611;28;19994;-72
2022/01/04 06:00:49;;;;;;;;;;;;;;;5.09;56.96;93687.38;5005541;28;19990;-69
2022/01/04 06:03:15;;;;;;;;;;;;;;;5.27;59.20;93680.81;5005754;28;19998;-69
2022/01/04 06:05:40;;;;;;;;;;;;;;;5.38;55.64;93680.28;4988049;28;19994;-70
2022/01/04 06:08:06;;;;;;;;;;;;;;;5.27;54.01;93678.97;5005381;28;20041;-69
2022/01/04 06:10:37;;;;;;;;;;;;;;;5.34;57.89;93674.56;5005259;28;20057;-69
2022/01/04 06:15:28;;;;;;;;;;;;;;;5.27;58.63;93670.28;5005352;28;20020;-70
2022/01/04 06:17:53;;;;;;;;;;;;;;;5.24;53.97;93675.94;5005459;28;19978;-69
2022/01/04 06:20:20;;;;;;;;;;;;;;;5.39;54.56;93667.91;5005116;28;20016;-70
2022/01/04 06:22:46;;;;;;;;;;;;;;;5.43;52.78;93666.50;5005788;28;20027;-70
2022/01/04 06:25:12;;;;;;;;;;;;;;;5.47;56.87;93676.47;5006531;28;19974;-70
2022/01/04 06:27:37;;;;;;;;;;;;;;;5.39;54.91;93676.63;5024867;28;19990;-70
2022/01/04 06:30:03;;;;;;;;;;;;;;;5.51;52.50;93674.25;5009225;28;19977;-69
2022/01/04 06:32:28;;;;;;;;;;;;;;;5.66;52.52;93676.81;5024445;28;20005;-70
2022/01/04 06:34:54;;;;;;;;;;;;;;;5.59;55.94;93679.41;5008976;28;19970;-70
2022/01/04 06:37:19;;;;;;;;;;;;;;;5.35;55.58;93676.19;4991684;28;19982;-69
2022/01/04 06:39:44;;;;;;;;;;;;;;;5.51;54.56;93687.47;5008761;28;20029;-70
2022/01/04 06:42:10;;;;;;;;;;;;;;;5.50;57.04;93677.13;4991951;28;20037;-69
2022/01/04 06:44:35;;;;;;;;;;;;;;;5.40;53.79;93672.97;4991110;28;19993;-69
2022/01/04 06:47:00;;;;;;;;;;;;;;;5.35;52.53;93667.47;5008570;28;19977;-69
2022/01/04 06:49:26;;;;;;;;;;;;;;;5.42;53.46;93663.06;4991630;28;20020;-70
2022/01/04 06:51:51;;;;;;;;;;;;;;;5.37;55.29;93659.38;5008247;28;20000;-70
2022/01/04 06:54:16;;;;;;;;;;;;;;;5.32;53.37;93662.59;5009118;28;19977;-70
2022/01/04 06:56:42;;;;;;;;;;;;;;;5.26;54.91;93663.34;4990257;28;19990;-70
2022/01/04 06:59:07;;;;;;;;;;;;;;;5.31;52.32;93651.19;5008782;28;19998;-70
2022/01/04 07:01:33;;;;;;;;;;;;;;;5.32;54.89;93638.84;5008568;28;20266;-69
2022/01/04 07:03:58;;;;;;;;;;;;;;;5.40;57.66;93635.22;4991073;28;20016;-70
2022/01/04 07:06:23;;;;;;;;;;;;;;;5.40;52.26;93638.66;5008458;28;19994;-69
2022/01/04 07:08:48;;;;;;;;;;;;;;;5.43;56.23;93633.00;5008889;28;20839;-70
2022/01/04 07:11:14;;;;;;;;;;;;;;;5.50;56.89;93632.25;5007960;28;19994;-70
2022/01/04 07:13:39;;;;;;;;;;;;;;;5.38;51.79;93632.78;5009380;28;19976;-70
2022/01/04 07:16:05;;;;;;;;;;;;;;;5.39;53.04;93623.84;5008240;28;19993;-69
2022/01/04 07:18:30;;;;;;;;;;;;;;;5.44;57.76;93621.44;5008615;28;19978;-70
2022/01/04 07:20:55;;;;;;;;;;;;;;;5.37;53.90;93627.72;5008112;28;20164;-70
2022/01/04 07:23:22;;;;;;;;;;;;;;;5.36;52.63;93621.59;5008528;28;20001;-70
2022/01/04 07:25:47;;;;;;;;;;;;;;;5.31;54.12;93624.81;5008361;28;20006;-70
2022/01/04 07:28:12;;;;;;;;;;;;;;;5.09;51.33;93624.91;5008171;28;20075;-69
2022/01/04 07:30:38;;;;;;;;;;;;;;;5.02;52.16;93610.00;5008330;28;19973;-69
2022/01/04 07:33:03;;;;;;;;;;;;;;;4.79;54.74;93609.22;5007959;28;20334;-70
2022/01/04 07:35:28;;;;;;;;;;;;;;;4.86;53.22;93601.34;5010134;28;20001;-70
2022/01/04 07:37:53;;;;;;;;;;;;;;;4.69;54.22;93612.19;5008852;28;20047;-70
2022/01/04 07:40:20;;;;;;;;;;;;;;;4.69;54.45;93612.19;5007175;28;19994;-70
2022/01/04 07:42:45;;;;;;;;;;;;;;;4.84;56.68;93596.28;5008355;28;19974;-69
2022/01/04 07:45:10;;;;;;;;;;;;;;;4.90;57.83;93602.59;5006916;28;20076;-70
2022/01/04 07:47:36;;;;;;;;;;;;;;;4.90;58.59;93597.31;5006528;28;19993;-70
2022/01/04 07:50:01;;;;;;;;;;;;;;;5.09;59.38;93590.59;5008603;28;20001;-69
2022/01/04 07:52:26;;;;;;;;;;;;;;;5.21;59.46;93588.22;5007056;28;19993;-70
2022/01/04 07:54:53;;;;;;;;;;;;;;;5.35;57.44;93593.59;5005669;28;20245;-69
2022/01/04 07:57:18;;;;;;;;;;;;;;;5.38;58.70;93589.75;5007241;28;20001;-69
2022/01/04 07:59:44;;;;;;;;;;;;;;;5.41;58.35;93582.25;5006739;28;20449;-70
2022/01/04 08:02:09;;;;;;;;;;;;;;;5.46;58.76;93586.94;5007590;28;19974;-70
2022/01/04 08:04:34;;;;;;;;;;;;;;;5.55;57.45;93598.16;5006512;28;19998;-69
2022/01/04 08:06:59;;;;;;;;;;;;;;;5.56;50.88;93599.78;5006586;28;20119;-70
2022/01/04 08:09:25;;;;;;;;;;;;;;;5.40;53.72;93595.63;5007610;28;20446;-68
2022/01/04 08:11:51;;;;;;;;;;;;;;;5.52;53.44;93596.72;5007172;28;20047;-70
2022/01/04 08:14:16;;;;;;;;;;;;;;;5.43;51.93;93595.25;5006935;28;20055;-70
2022/01/04 08:16:41;;;;;;;;;;;;;;;5.36;53.57;93589.94;5021523;28;20478;-70
2022/01/04 08:19:07;;;;;;;;;;;;;;;5.43;53.04;93592.59;5006940;28;19998;-70
2022/01/04 08:21:32;;;;;;;;;;;;;;;5.32;52.75;93596.63;5007296;28;19981;-68
2022/01/04 08:23:57;;;;;;;;;;;;;;;5.24;52.28;93604.69;5006545;28;19989;-69
2022/01/04 08:26:23;;;;;;;;;;;;;;;5.15;50.38;93598.75;5011032;28;20453;-69
2022/01/04 08:28:49;;;;;;;;;;;;;;;4.49;51.64;93603.31;5002179;28;20455;-70
2022/01/04 08:31:14;;;;;;;;;;;;;;;4.38;52.71;93600.16;5004895;28;20004;-70
2022/01/04 08:33:39;;;;;;;;;;;;;;;4.52;53.39;93600.31;5011448;28;19966;-70
2022/01/04 08:36:04;;;;;;;;;;;;;;;4.53;52.35;93594.03;5011231;28;20488;-70
2022/01/04 08:38:30;;;;;;;;;;;;;;;4.52;52.47;93597.66;5008101;28;19978;-69
2022/01/04 08:40:55;;;;;;;;;;;;;;;4.28;53.23;93600.47;5005163;28;20540;-70
2022/01/04 08:43:20;;;;;;;;;;;;;;;4.50;52.57;93600.50;5004831;28;20573;-69
2022/01/04 08:45:46;;;;;;;;;;;;;;;4.20;53.17;93597.97;5002826;28;20390;-69
2022/01/04 08:48:11;;;;;;;;;;;;;;;4.10;53.73;93593.03;5004253;28;20092;-69
2022/01/04 08:50:36;;;;;;;;;;;;;;;4.07;53.43;93590.75;5002472;28;19981;-69
2022/01/04 08:53:01;;;;;;;;;;;;;;;3.81;53.77;93590.28;5002294;28;20072;-69
2022/01/04 08:55:27;;;;;;;;;;;;;;;3.84;55.09;93591.72;4998101;28;19993;-70
2022/01/04 08:57:52;;;;;;;;;;;;;;;3.83;54.44;93584.00;5003118;28;19993;-70
2022/01/04 09:00:17;;;;;;;;;;;;;;;3.96;55.84;93583.34;5002269;28;20489;-70
2022/01/04 09:02:45;;;;;;;;;;;;;;;3.95;55.18;93593.06;4984332;28;20064;-70
2022/01/04 09:05:11;;;;;;;;;;;;;;;3.80;54.40;93585.19;4993713;28;20450;-69
2022/01/04 09:07:36;;;;;;;;;;;;;;;3.91;54.95;93576.81;5001467;28;19998;-69
2022/01/04 09:10:02;;;;;;;;;;;;;;;3.90;56.78;93577.84;4983738;28;19977;-64
2022/01/04 09:12:39;;;;;;;;;;;;;;;3.92;59.18;93578.44;5000836;28;20004;-69
2022/01/04 09:15:27;;;;;;;;;;;;;;;3.97;59.00;93577.06;5000882;28;20426;-69
2022/01/04 09:20:33;;;;;;;;;;;;;;;4.18;59.22;93579.72;5001942;28;20464;-69
2022/01/04 09:22:59;;;;;;;;;;;;;;;4.44;60.62;93586.25;5002099;28;19970;-69
2022/01/04 09:25:24;;;;;;;;;;;;;;;4.62;61.53;93577.06;5008236;28;20494;-70
2022/01/04 09:27:50;;;;;;;;;;;;;;;4.42;52.68;93580.34;5020071;28;20517;-68
2022/01/04 09:30:15;;;;;;;;;;;;;;;4.50;56.67;93581.22;5020278;28;19969;-69
2022/01/04 09:32:41;;;;;;;;;;;;;;;4.60;53.78;93581.72;5001469;28;20426;-69
2022/01/04 09:35:07;;;;;;;;;;;;;;;4.38;55.15;93584.34;5003854;28;19994;-69
2022/01/04 09:37:32;;;;;;;;;;;;;;;4.32;57.39;93593.84;5001498;28;20402;-69
2022/01/04 09:39:58;;;;;;;;;;;;;;;4.11;55.21;93597.28;5014589;28;19990;-69
2022/01/04 09:42:23;;;;;;;;;;;;;;;4.45;56.82;93597.59;5001886;28;19973;-69
2022/01/04 09:44:48;;;;;;;;;;;;;;;4.50;58.90;93597.84;5000465;28;19997;-69
2022/01/04 09:47:13;;;;;;;;;;;;;;;4.64;53.20;93603.22;5000306;28;20000;-69
2022/01/04 09:49:39;;;;;;;;;;;;;;;4.69;51.97;93598.19;5001827;28;20513;-69
2022/01/04 09:52:04;;;;;;;;;;;;;;;4.59;54.00;93598.50;5001540;28;20422;-69
2022/01/04 09:54:30;;;;;;;;;;;;;;;4.58;53.64;93604.78;5016226;28;19974;-69
2022/01/04 09:56:55;;;;;;;;;;;;;;;4.29;53.02;93606.59;4983429;28;20047;-69
2022/01/04 09:59:20;;;;;;;;;;;;;;;4.15;55.21;93603.78;5001092;28;20064;-69
2022/01/04 10:01:50;;;;;;;;;;;;;;;3.94;55.62;93599.31;5012938;28;20449;-69
2022/01/04 10:04:15;;;;;;;;;;;;;;;3.57;56.69;93598.50;5000640;28;19997;-69
2022/01/04 10:06:41;;;;;;;;;;;;;;;3.87;56.34;93594.00;5001829;28;19989;-69
2022/01/04 10:09:11;;;;;;;;;;;;;;;3.64;55.65;93604.69;4984042;28;20498;-69
2022/01/04 10:11:43;;;;;;;;;;;;;;;3.40;55.84;93599.50;5001117;28;20005;-64
2022/01/04 10:14:27;;;;;;;;;;;;;;;3.20;56.98;93593.16;5001114;28;20035;-64
2022/01/04 10:16:57;;;;;;;;;;;;;;;2.86;57.98;93592.69;5000701;28;20068;-63
2022/01/04 10:19:28;;;;;;;;;;;;;;;2.79;56.91;93597.81;5001184;28;20096;-63
2022/01/04 10:22:12;;;;;;;;;;;;;;;2.54;58.91;93587.56;5001013;28;20306;-63
2022/01/04 10:24:37;;;;;;;;;;;;;;;2.59;57.12;93590.44;5007596;28;20003;-63
2022/01/04 10:27:20;;;;;;;;;;;;;;;2.56;58.92;93587.38;5020519;28;20005;-63
2022/01/04 10:29:45;;;;;;;;;;;;;;;2.21;58.25;93598.34;5004048;28;19970;-63
2022/01/04 10:32:11;;;;;;;;;;;;;;;2.36;58.07;93585.25;5000866;28;19994;-63
2022/01/04 10:34:46;;;;;;;;;;;;;;;2.13;60.13;93586.91;4999715;28;19984;-63
2022/01/04 10:37:30;;;;;;;;;;;;;;;2.67;58.87;93573.81;5000891;28;20326;-63
2022/01/04 10:40:06;;;;;;;;;;;;;;;2.62;57.74;93597.97;5000859;28;20144;-63
2022/01/04 10:42:31;;;;;;;;;;;;;;;2.55;57.49;93591.00;5000079;28;19973;-63
2022/01/04 10:44:56;;;;;;;;;;;;;;;2.73;57.41;93588.03;5008857;28;20037;-62
2022/01/04 10:47:26;;;;;;;;;;;;;;;2.81;58.45;93576.63;4978691;28;20041;-63
2022/01/04 10:49:51;;;;;;;;;;;;;;;2.88;59.96;93567.03;5000045;28;20537;-63
2022/01/04 10:52:22;;;;;;;;;;;;;;;3.16;56.08;93572.47;5000637;28;20080;-63
2022/01/04 10:54:48;;;;;;;;;;;;;;;3.43;55.43;93570.19;5000191;28;20429;-64
2022/01/04 10:57:13;;;;;;;;;;;;;;;3.24;56.72;93574.22;5015608;28;20005;-63
2022/01/04 10:59:38;;;;;;;;;;;;;;;3.26;58.71;93566.13;5000473;28;20048;-63
2022/01/04 11:02:04;;;;;;;;;;;;;;;3.30;58.09;93573.47;5001355;28;20435;-63
2022/01/04 11:04:29;;;;;;;;;;;;;;;3.62;57.26;93575.09;4999131;28;19993;-63
2022/01/04 11:06:58;;;;;;;;;;;;;;;3.84;55.33;93578.56;5000541;28;20048;-63
2022/01/04 11:09:24;;;;;;;;;;;;;;;3.90;54.69;93577.84;5013170;28;19993;-63
2022/01/04 11:11:49;;;;;;;;;;;;;;;4.04;54.70;93585.84;5002221;28;20640;-62
2022/01/04 11:14:14;;;;;;;;;;;;;;;3.91;54.26;93583.94;5012401;28;20011;-62
2022/01/04 11:16:39;;;;;;;;;;;;;;;3.49;55.48;93581.00;5006711;28;20001;-62
2022/01/04 11:19:05;;;;;;;;;;;;;;;3.51;55.52;93584.28;5003809;28;20009;-62
2022/01/04 11:21:43;;;;;;;;;;;;;;;3.75;54.77;93580.50;5004502;28;20024;-63
2022/01/04 11:24:12;;;;;;;;;;;;;;;3.50;55.53;93578.19;5006696;28;20028;-62
2022/01/04 11:26:41;;;;;;;;;;;;;;;3.57;55.76;93570.38;5013186;28;20453;-63
2022/01/04 11:29:06;;;;;;;;;;;;;;;3.33;55.96;93574.91;5003300;28;20390;-63
2022/01/04 11:31:57;;;;;;;;;;;;;;;3.24;55.57;93576.00;5003695;28;20009;-63
2022/01/04 11:34:41;;;;;;;;;;;;;;;3.71;55.51;93573.16;5000040;28;20517;-62
2022/01/04 11:37:07;;;;;;;;;;;;;;;3.52;55.97;93580.63;5003791;28;20048;-63
2022/01/04 11:39:36;;;;;;;;;;;;;;;3.52;56.17;93585.91;4985086;28;20221;-62
2022/01/04 11:42:03;;;;;;;;;;;;;;;3.62;55.56;93583.81;5017535;28;19976;-63
2022/01/04 11:44:29;;;;;;;;;;;;;;;3.45;56.53;93580.56;5002425;28;19998;-63
2022/01/04 11:47:08;;;;;;;;;;;;;;;3.57;56.37;93575.63;5003197;28;20464;-62
2022/01/04 11:49:36;;;;;;;;;;;;;;;3.65;56.58;93580.81;5003267;28;19974;-63
2022/01/04 11:52:01;;;;;;;;;;;;;;;3.80;56.49;93582.56;5002841;28;20044;-63
2022/01/04 11:54:27;;;;;;;;;;;;;;;3.40;56.67;93580.25;5004013;28;20178;-63
2022/01/04 11:57:03;;;;;;;;;;;;;;;3.60;55.79;93582.38;5017329;28;20001;-63
2022/01/04 11:59:38;;;;;;;;;;;;;;;3.55;57.05;93577.66;5002092;28;20001;-63
2022/01/04 12:02:23;;;;;;;;;;;;;;;3.59;55.84;93584.16;5018596;28;20413;-63
2022/01/04 12:04:50;;;;;;;;;;;;;;;4.03;54.65;93576.34;5008380;28;20019;-63
2022/01/04 12:07:34;;;;;;;;;;;;;;;3.92;55.50;93565.28;5002482;28;20513;-63
2022/01/04 12:10:18;;;;;;;;;;;;;;;3.99;54.74;93572.44;5003317;28;20385;-63
2022/01/04 12:12:53;;;;;;;;;;;;;;;4.17;54.73;93572.84;5002945;28;19993;-63
2022/01/04 12:15:33;;;;;;;;;;;;;;;3.08;58.19;93575.19;5003095;28;20034;-63
2022/01/04 12:18:02;;;;;;;;;;;;;;;3.80;55.61;93557.06;5005938;28;20198;-62
2022/01/04 12:20:43;;;;;;;;;;;;;;;3.90;55.63;93577.00;5001988;28;19993;-62
2022/01/04 12:23:24;;;;;;;;;;;;;;;3.29;57.66;93571.00;5000650;28;20231;-63
2022/01/04 12:26:05;;;;;;;;;;;;;;;3.50;56.66;93567.66;5016362;28;20067;-63
2022/01/04 12:28:34;;;;;;;;;;;;;;;2.71;57.96;93571.63;5004087;28;19996;-63
2022/01/04 12:31:20;;;;;;;;;;;;;;;3.50;56.58;93569.50;5002345;28;20372;-63
2022/01/04 12:33:46;;;;;;;;;;;;;;;2.82;58.21;93586.16;5005661;28;19974;-63
2022/01/04 12:36:22;;;;;;;;;;;;;;;2.83;59.56;93574.66;5001905;28;20478;-63
2022/01/04 12:38:48;;;;;;;;;;;;;;;3.06;57.88;93584.28;5001368;28;20036;-63
2022/01/04 12:41:15;;;;;;;;;;;;;;;2.65;59.06;93589.75;5010400;28;20486;-63
2022/01/04 12:43:40;;;;;;;;;;;;;;;2.82;60.05;93586.97;5001975;28;20052;-63
2022/01/04 12:46:06;;;;;;;;;;;;;;;2.11;60.45;93599.38;5018730;28;19974;-63
2022/01/04 12:48:47;;;;;;;;;;;;;;;1.84;61.20;93601.50;5002073;28;20084;-63
2022/01/04 12:51:23;;;;;;;;;;;;;;;0.58;65.53;93608.13;4984472;28;20001;-63
2022/01/04 12:53:48;;;;;;;;;;;;;;;0.68;66.51;93607.16;5002388;28;20368;-63
2022/01/04 12:56:13;;;;;;;;;;;;;;;0.46;66.35;93619.94;5002651;28;20409;-69
2022/01/04 12:58:39;;;;;;;;;;;;;;;0.09;68.67;93616.81;5001124;28;20474;-70
2022/01/04 13:01:04;;;;;;;;;;;;;;;-0.06;69.39;93619.25;5000031;28;20084;-62
2022/01/04 13:03:32;;;;;;;;;;;;;;;-0.59;70.85;93612.41;5000680;28;20274;-61
2022/01/04 13:06:00;;;;;;;;;;;;;;;-0.31;70.50;93614.78;5004482;28;19997;-61